Skip Navigation Links Skip Navigation Links

Current Weather

Newnan Coweta County, Newnan, Ga.

For information only: do not use for flight planning or navigation.
Latest weather
Observation time Tuesday, January 26, 2021 7:35 PM EST
Local time Tuesday, January 26, 2021 7:51 PM EST
Flight conditions Visual Meteorological Conditions
Winds
Wind speed calm
Visibility 10 mi.
Sky condition
Ceiling 8,000 ft. broken clouds
Cloud layer broken clouds 8,000 ft.
Cloud layer broken clouds 12,000 ft.
Temperature 61°F
Dewpoint 57°F
Altimeter 29.97 in.Hg
Derived measurements
Relative humidity 87%
Density altitude 1278 ft.
Remarks
Fully automated report.
Automated weather observing station with precipitation discriminator.
METAR KCCO 270035Z AUTO 00000KT 10SM BKN080 BKN120 16/14 A2997 RMK AO2 T01620140

Settings

Location code

InnerDrive.Weather 4.0.6770.0 Release CLR 4.0.30319.42000
Copyright ©2018 Inner Drive Technology. All rights reserved. Portions Copyright ©1986-2018 David Braverman.

Find weather

Site navigation


Skip Navigation Links

Place info

Page info

PayPal - The safer, easier way to pay online!

Return home.

Copyright ©2021 Inner Drive Technology. Purveyors of fine, hand-crafted computer software. Page printed 2021-01-27T00:51:06 UTC.